sensor_id;sensor_type;location;lat;lon;timestamp;temperature;humidity
31675;DHT22;18276;45.520;11.018;2023-04-24T00:00:14;17.70;68.90
31675;DHT22;18276;45.520;11.018;2023-04-24T00:02:42;17.70;68.90
31675;DHT22;18276;45.520;11.018;2023-04-24T00:05:15;17.70;69.20
31675;DHT22;18276;45.520;11.018;2023-04-24T00:07:42;17.60;69.00
31675;DHT22;18276;45.520;11.018;2023-04-24T00:10:10;17.60;69.20
31675;DHT22;18276;45.520;11.018;2023-04-24T00:12:37;17.60;69.40
31675;DHT22;18276;45.520;11.018;2023-04-24T00:15:05;17.50;69.70
31675;DHT22;18276;45.520;11.018;2023-04-24T00:17:32;17.50;70.00
31675;DHT22;18276;45.520;11.018;2023-04-24T00:19:59;17.50;70.00
31675;DHT22;18276;45.520;11.018;2023-04-24T00:22:28;17.50;70.00
31675;DHT22;18276;45.520;11.018;2023-04-24T00:24:55;17.50;70.10
31675;DHT22;18276;45.520;11.018;2023-04-24T00:27:22;17.50;70.20
31675;DHT22;18276;45.520;11.018;2023-04-24T00:29:49;17.50;70.30
31675;DHT22;18276;45.520;11.018;2023-04-24T00:32:16;17.50;70.20
31675;DHT22;18276;45.520;11.018;2023-04-24T00:34:44;17.50;70.20
31675;DHT22;18276;45.520;11.018;2023-04-24T00:37:12;17.50;70.20
31675;DHT22;18276;45.520;11.018;2023-04-24T00:39:38;17.50;70.20
31675;DHT22;18276;45.520;11.018;2023-04-24T00:42:06;17.50;70.20
31675;DHT22;18276;45.520;11.018;2023-04-24T00:44:33;17.50;70.30
31675;DHT22;18276;45.520;11.018;2023-04-24T00:47:01;17.50;70.50
31675;DHT22;18276;45.520;11.018;2023-04-24T00:49:28;17.50;70.50
31675;DHT22;18276;45.520;11.018;2023-04-24T00:51:55;17.50;70.40
31675;DHT22;18276;45.520;11.018;2023-04-24T00:54:23;17.50;70.40
31675;DHT22;18276;45.520;11.018;2023-04-24T00:56:50;17.50;70.60
31675;DHT22;18276;45.520;11.018;2023-04-24T00:59:18;17.50;70.90
31675;DHT22;18276;45.520;11.018;2023-04-24T01:01:45;17.50;71.00
31675;DHT22;18276;45.520;11.018;2023-04-24T01:04:13;17.40;71.00
31675;DHT22;18276;45.520;11.018;2023-04-24T01:06:43;17.40;71.10
31675;DHT22;18276;45.520;11.018;2023-04-24T01:09:11;17.40;71.40
31675;DHT22;18276;45.520;11.018;2023-04-24T01:11:40;17.40;71.60
31675;DHT22;18276;45.520;11.018;2023-04-24T01:14:08;17.30;71.80
31675;DHT22;18276;45.520;11.018;2023-04-24T01:16:35;17.30;72.00
31675;DHT22;18276;45.520;11.018;2023-04-24T01:19:02;17.30;72.20
31675;DHT22;18276;45.520;11.018;2023-04-24T01:21:30;17.30;72.20
31675;DHT22;18276;45.520;11.018;2023-04-24T01:23:57;17.30;72.20
31675;DHT22;18276;45.520;11.018;2023-04-24T01:26:24;17.30;72.00
31675;DHT22;18276;45.520;11.018;2023-04-24T01:28:52;17.30;72.00
31675;DHT22;18276;45.520;11.018;2023-04-24T01:31:20;17.20;72.00
31675;DHT22;18276;45.520;11.018;2023-04-24T01:33:47;17.20;71.90
31675;DHT22;18276;45.520;11.018;2023-04-24T01:36:16;17.20;72.00
31675;DHT22;18276;45.520;11.018;2023-04-24T01:38:43;17.20;72.20
31675;DHT22;18276;45.520;11.018;2023-04-24T01:41:10;17.10;72.30
31675;DHT22;18276;45.520;11.018;2023-04-24T01:43:38;17.20;72.30
31675;DHT22;18276;45.520;11.018;2023-04-24T01:46:05;17.20;72.10
31675;DHT22;18276;45.520;11.018;2023-04-24T01:48:35;17.20;71.80
31675;DHT22;18276;45.520;11.018;2023-04-24T01:51:02;17.20;71.60
31675;DHT22;18276;45.520;11.018;2023-04-24T01:53:29;17.20;71.40
31675;DHT22;18276;45.520;11.018;2023-04-24T01:55:57;17.20;71.30
31675;DHT22;18276;45.520;11.018;2023-04-24T01:58:24;17.20;71.90
31675;DHT22;18276;45.520;11.018;2023-04-24T02:00:52;17.20;72.30
31675;DHT22;18276;45.520;11.018;2023-04-24T02:03:19;17.20;72.90
31675;DHT22;18276;45.520;11.018;2023-04-24T02:05:48;17.10;73.50
31675;DHT22;18276;45.520;11.018;2023-04-24T02:08:15;17.10;74.30
31675;DHT22;18276;45.520;11.018;2023-04-24T02:10:42;17.00;74.90
31675;DHT22;18276;45.520;11.018;2023-04-24T02:13:09;16.90;75.70
31675;DHT22;18276;45.520;11.018;2023-04-24T02:15:36;16.90;76.50
31675;DHT22;18276;45.520;11.018;2023-04-24T02:18:03;16.90;77.30
31675;DHT22;18276;45.520;11.018;2023-04-24T02:20:31;16.80;77.70
31675;DHT22;18276;45.520;11.018;2023-04-24T02:23:01;16.70;78.20
31675;DHT22;18276;45.520;11.018;2023-04-24T02:25:28;16.60;79.40
31675;DHT22;18276;45.520;11.018;2023-04-24T02:27:54;16.50;80.80
31675;DHT22;18276;45.520;11.018;2023-04-24T02:30:22;16.50;81.90
31675;DHT22;18276;45.520;11.018;2023-04-24T02:32:48;16.40;82.80
31675;DHT22;18276;45.520;11.018;2023-04-24T02:35:16;16.40;83.20
31675;DHT22;18276;45.520;11.018;2023-04-24T02:37:43;16.30;83.60
31675;DHT22;18276;45.520;11.018;2023-04-24T02:40:11;16.20;84.20
31675;DHT22;18276;45.520;11.018;2023-04-24T02:42:38;16.20;85.10
31675;DHT22;18276;45.520;11.018;2023-04-24T02:45:06;16.20;86.20
31675;DHT22;18276;45.520;11.018;2023-04-24T02:47:33;16.10;87.30
31675;DHT22;18276;45.520;11.018;2023-04-24T02:50:01;16.10;88.80
31675;DHT22;18276;45.520;11.018;2023-04-24T02:52:29;16.00;90.10
31675;DHT22;18276;45.520;11.018;2023-04-24T02:54:56;16.00;90.70
31675;DHT22;18276;45.520;11.018;2023-04-24T02:57:23;15.90;91.50
31675;DHT22;18276;45.520;11.018;2023-04-24T02:59:50;15.90;92.10
31675;DHT22;18276;45.520;11.018;2023-04-24T03:02:18;15.90;92.60
31675;DHT22;18276;45.520;11.018;2023-04-24T03:04:45;15.90;92.80
31675;DHT22;18276;45.520;11.018;2023-04-24T03:07:14;15.80;92.90
31675;DHT22;18276;45.520;11.018;2023-04-24T03:09:42;15.80;93.10
31675;DHT22;18276;45.520;11.018;2023-04-24T03:12:09;15.80;93.30
31675;DHT22;18276;45.520;11.018;2023-04-24T03:14:38;15.80;93.70
31675;DHT22;18276;45.520;11.018;2023-04-24T03:17:05;15.80;94.70
31675;DHT22;18276;45.520;11.018;2023-04-24T03:19:32;15.80;95.90
31675;DHT22;18276;45.520;11.018;2023-04-24T03:22:05;15.80;96.50
31675;DHT22;18276;45.520;11.018;2023-04-24T03:24:33;15.80;97.20
31675;DHT22;18276;45.520;11.018;2023-04-24T03:27:01;15.80;97.80
31675;DHT22;18276;45.520;11.018;2023-04-24T03:29:48;15.80;98.40
31675;DHT22;18276;45.520;11.018;2023-04-24T03:32:18;15.80;98.90
31675;DHT22;18276;45.520;11.018;2023-04-24T03:34:46;15.80;99.90
31675;DHT22;18276;45.520;11.018;2023-04-24T03:37:15;15.70;99.90
31675;DHT22;18276;45.520;11.018;2023-04-24T03:39:47;15.70;99.90
31675;DHT22;18276;45.520;11.018;2023-04-24T03:42:17;15.70;99.90
31675;DHT22;18276;45.520;11.018;2023-04-24T03:44:50;15.70;99.90
31675;DHT22;18276;45.520;11.018;2023-04-24T03:47:21;15.60;99.90
31675;DHT22;18276;45.520;11.018;2023-04-24T03:49:49;15.50;99.90
31675;DHT22;18276;45.520;11.018;2023-04-24T03:52:16;15.40;99.90
31675;DHT22;18276;45.520;11.018;2023-04-24T03:54:43;15.30;99.90
31675;DHT22;18276;45.520;11.018;2023-04-24T03:57:11;15.20;99.90
31675;DHT22;18276;45.520;11.018;2023-04-24T03:59:45;15.10;99.90
31675;DHT22;18276;45.520;11.018;2023-04-24T04:02:16;15.10;99.90
31675;DHT22;18276;45.520;11.018;2023-04-24T04:04:44;15.00;99.90
31675;DHT22;18276;45.520;11.018;2023-04-24T04:07:11;14.90;99.90
31675;DHT22;18276;45.520;11.018;2023-04-24T04:09:39;14.90;99.90
31675;DHT22;18276;45.520;11.018;2023-04-24T04:12:07;14.90;99.90
31675;DHT22;18276;45.520;11.018;2023-04-24T04:14:36;15.00;99.90
31675;DHT22;18276;45.520;11.018;2023-04-24T04:17:03;15.00;99.90
31675;DHT22;18276;45.520;11.018;2023-04-24T04:19:29;15.10;99.90
31675;DHT22;18276;45.520;11.018;2023-04-24T04:21:57;15.20;99.90
31675;DHT22;18276;45.520;11.018;2023-04-24T04:24:40;15.20;99.90
31675;DHT22;18276;45.520;11.018;2023-04-24T04:27:09;15.30;99.90
31675;DHT22;18276;45.520;11.018;2023-04-24T04:29:45;15.30;99.90
31675;DHT22;18276;45.520;11.018;2023-04-24T04:32:15;15.30;99.90
31675;DHT22;18276;45.520;11.018;2023-04-24T04:34:42;15.30;99.90
31675;DHT22;18276;45.520;11.018;2023-04-24T04:37:12;15.30;99.90
31675;DHT22;18276;45.520;11.018;2023-04-24T04:39:46;15.30;99.90
31675;DHT22;18276;45.520;11.018;2023-04-24T04:42:22;15.30;99.90
31675;DHT22;18276;45.520;11.018;2023-04-24T04:44:50;15.30;99.90
31675;DHT22;18276;45.520;11.018;2023-04-24T04:47:22;15.30;99.90
31675;DHT22;18276;45.520;11.018;2023-04-24T04:49:51;15.30;99.90
31675;DHT22;18276;45.520;11.018;2023-04-24T04:52:22;15.30;99.90
31675;DHT22;18276;45.520;11.018;2023-04-24T04:54:58;15.30;99.90
31675;DHT22;18276;45.520;11.018;2023-04-24T04:57:37;15.30;99.90
31675;DHT22;18276;45.520;11.018;2023-04-24T05:00:05;15.30;99.90
31675;DHT22;18276;45.520;11.018;2023-04-24T05:02:43;15.20;99.90
31675;DHT22;18276;45.520;11.018;2023-04-24T05:05:12;15.30;99.90
31675;DHT22;18276;45.520;11.018;2023-04-24T05:07:39;15.30;99.90
31675;DHT22;18276;45.520;11.018;2023-04-24T05:10:07;15.10;99.90
31675;DHT22;18276;45.520;11.018;2023-04-24T05:12:34;15.00;99.90
31675;DHT22;18276;45.520;11.018;2023-04-24T05:15:03;14.80;99.90
31675;DHT22;18276;45.520;11.018;2023-04-24T05:17:30;14.70;99.90
31675;DHT22;18276;45.520;11.018;2023-04-24T05:19:58;14.60;99.90
31675;DHT22;18276;45.520;11.018;2023-04-24T05:22:25;14.50;99.90
31675;DHT22;18276;45.520;11.018;2023-04-24T05:24:52;14.50;99.90
31675;DHT22;18276;45.520;11.018;2023-04-24T05:27:35;14.50;99.90
31675;DHT22;18276;45.520;11.018;2023-04-24T05:30:08;14.50;99.90
31675;DHT22;18276;45.520;11.018;2023-04-24T05:32:36;14.40;99.90
31675;DHT22;18276;45.520;11.018;2023-04-24T05:35:03;14.40;99.90
31675;DHT22;18276;45.520;11.018;2023-04-24T05:37:30;14.40;99.90
31675;DHT22;18276;45.520;11.018;2023-04-24T05:39:57;14.40;99.90
31675;DHT22;18276;45.520;11.018;2023-04-24T05:42:25;14.40;99.90
31675;DHT22;18276;45.520;11.018;2023-04-24T05:44:52;14.40;99.90
31675;DHT22;18276;45.520;11.018;2023-04-24T05:47:23;14.30;99.90
31675;DHT22;18276;45.520;11.018;2023-04-24T05:49:52;14.40;99.90
31675;DHT22;18276;45.520;11.018;2023-04-24T05:52:19;14.40;99.90
31675;DHT22;18276;45.520;11.018;2023-04-24T05:54:48;14.30;99.90
31675;DHT22;18276;45.520;11.018;2023-04-24T05:57:20;14.30;99.90
31675;DHT22;18276;45.520;11.018;2023-04-24T05:59:52;14.40;99.90
31675;DHT22;18276;45.520;11.018;2023-04-24T06:02:20;14.40;99.90
31675;DHT22;18276;45.520;11.018;2023-04-24T06:04:47;14.50;99.90
31675;DHT22;18276;45.520;11.018;2023-04-24T06:07:16;14.60;99.90
31675;DHT22;18276;45.520;11.018;2023-04-24T06:09:44;14.60;99.90
31675;DHT22;18276;45.520;11.018;2023-04-24T06:12:11;14.70;99.90
31675;DHT22;18276;45.520;11.018;2023-04-24T06:14:50;14.80;99.90
31675;DHT22;18276;45.520;11.018;2023-04-24T06:17:21;14.90;99.90
31675;DHT22;18276;45.520;11.018;2023-04-24T06:19:49;15.00;99.90
31675;DHT22;18276;45.520;11.018;2023-04-24T06:22:17;15.00;99.90
31675;DHT22;18276;45.520;11.018;2023-04-24T06:24:44;15.10;99.90
31675;DHT22;18276;45.520;11.018;2023-04-24T06:27:11;15.20;99.90
31675;DHT22;18276;45.520;11.018;2023-04-24T06:29:40;15.30;99.90
31675;DHT22;18276;45.520;11.018;2023-04-24T06:32:07;15.20;99.90
31675;DHT22;18276;45.520;11.018;2023-04-24T06:34:34;15.20;99.90
31675;DHT22;18276;45.520;11.018;2023-04-24T06:37:02;15.30;99.90
31675;DHT22;18276;45.520;11.018;2023-04-24T06:39:29;15.30;99.90
31675;DHT22;18276;45.520;11.018;2023-04-24T06:41:56;15.30;99.90
31675;DHT22;18276;45.520;11.018;2023-04-24T06:44:23;15.30;99.90
31675;DHT22;18276;45.520;11.018;2023-04-24T06:46:50;15.30;99.90
31675;DHT22;18276;45.520;11.018;2023-04-24T06:49:17;15.30;99.90
31675;DHT22;18276;45.520;11.018;2023-04-24T06:51:44;15.30;99.90
31675;DHT22;18276;45.520;11.018;2023-04-24T06:54:12;15.40;99.90
31675;DHT22;18276;45.520;11.018;2023-04-24T06:56:39;15.50;99.90
31675;DHT22;18276;45.520;11.018;2023-04-24T06:59:06;15.60;99.90
31675;DHT22;18276;45.520;11.018;2023-04-24T07:01:33;15.60;99.90
31675;DHT22;18276;45.520;11.018;2023-04-24T07:04:00;15.60;99.90
31675;DHT22;18276;45.520;11.018;2023-04-24T07:06:28;15.70;99.90
31675;DHT22;18276;45.520;11.018;2023-04-24T07:08:58;15.80;99.90
31675;DHT22;18276;45.520;11.018;2023-04-24T07:11:27;15.80;99.90
31675;DHT22;18276;45.520;11.018;2023-04-24T07:13:56;15.70;99.90
31675;DHT22;18276;45.520;11.018;2023-04-24T07:16:22;15.90;99.90
31675;DHT22;18276;45.520;11.018;2023-04-24T07:18:49;16.00;99.90
31675;DHT22;18276;45.520;11.018;2023-04-24T07:21:17;16.10;99.90
31675;DHT22;18276;45.520;11.018;2023-04-24T07:23:44;16.20;99.90
31675;DHT22;18276;45.520;11.018;2023-04-24T07:26:12;16.40;99.90
31675;DHT22;18276;45.520;11.018;2023-04-24T07:28:38;16.60;99.70
31675;DHT22;18276;45.520;11.018;2023-04-24T07:31:06;16.80;97.90
31675;DHT22;18276;45.520;11.018;2023-04-24T07:33:33;16.90;97.00
31675;DHT22;18276;45.520;11.018;2023-04-24T07:36:00;17.00;96.30
31675;DHT22;18276;45.520;11.018;2023-04-24T07:38:29;17.00;94.90
31675;DHT22;18276;45.520;11.018;2023-04-24T07:40:57;17.00;94.50
31675;DHT22;18276;45.520;11.018;2023-04-24T07:43:24;16.80;94.10
31675;DHT22;18276;45.520;11.018;2023-04-24T07:45:51;16.50;94.20
31675;DHT22;18276;45.520;11.018;2023-04-24T07:48:18;16.30;93.60
31675;DHT22;18276;45.520;11.018;2023-04-24T07:50:45;16.10;94.00
31675;DHT22;18276;45.520;11.018;2023-04-24T07:53:12;16.10;92.50
31675;DHT22;18276;45.520;11.018;2023-04-24T07:55:39;16.10;90.10
31675;DHT22;18276;45.520;11.018;2023-04-24T07:58:06;16.00;86.00
31675;DHT22;18276;45.520;11.018;2023-04-24T08:00:33;16.00;84.10
31675;DHT22;18276;45.520;11.018;2023-04-24T08:03:00;16.10;82.70
31675;DHT22;18276;45.520;11.018;2023-04-24T08:05:28;16.30;83.20
31675;DHT22;18276;45.520;11.018;2023-04-24T08:07:55;16.40;82.60
31675;DHT22;18276;45.520;11.018;2023-04-24T08:10:23;16.60;82.40
31675;DHT22;18276;45.520;11.018;2023-04-24T08:12:50;16.60;82.50
31675;DHT22;18276;45.520;11.018;2023-04-24T08:15:17;16.80;82.20
31675;DHT22;18276;45.520;11.018;2023-04-24T08:17:44;17.00;81.40
31675;DHT22;18276;45.520;11.018;2023-04-24T08:20:12;17.20;80.60
31675;DHT22;18276;45.520;11.018;2023-04-24T08:22:42;17.50;79.40
31675;DHT22;18276;45.520;11.018;2023-04-24T08:25:11;17.50;77.80
31675;DHT22;18276;45.520;11.018;2023-04-24T08:27:38;17.60;76.80
31675;DHT22;18276;45.520;11.018;2023-04-24T08:30:06;17.60;77.00
31675;DHT22;18276;45.520;11.018;2023-04-24T08:32:33;17.70;76.00
31675;DHT22;18276;45.520;11.018;2023-04-24T08:35:01;17.70;76.20
31675;DHT22;18276;45.520;11.018;2023-04-24T08:37:28;17.80;73.20
31675;DHT22;18276;45.520;11.018;2023-04-24T08:39:55;17.80;72.80
31675;DHT22;18276;45.520;11.018;2023-04-24T08:42:22;17.80;72.50
31675;DHT22;18276;45.520;11.018;2023-04-24T08:44:49;17.90;71.50
31675;DHT22;18276;45.520;11.018;2023-04-24T08:47:17;17.90;71.30
31675;DHT22;18276;45.520;11.018;2023-04-24T08:49:48;17.90;71.50
31675;DHT22;18276;45.520;11.018;2023-04-24T08:52:15;18.00;71.70
31675;DHT22;18276;45.520;11.018;2023-04-24T08:54:43;18.00;71.40
31675;DHT22;18276;45.520;11.018;2023-04-24T08:57:13;18.10;70.80
31675;DHT22;18276;45.520;11.018;2023-04-24T08:59:40;18.10;70.90
31675;DHT22;18276;45.520;11.018;2023-04-24T09:02:10;18.20;71.20
31675;DHT22;18276;45.520;11.018;2023-04-24T09:04:39;18.30;70.80
31675;DHT22;18276;45.520;11.018;2023-04-24T09:07:08;18.40;70.30
31675;DHT22;18276;45.520;11.018;2023-04-24T09:09:38;18.50;68.80
31675;DHT22;18276;45.520;11.018;2023-04-24T09:12:06;18.60;68.20
31675;DHT22;18276;45.520;11.018;2023-04-24T09:14:33;18.70;68.80
31675;DHT22;18276;45.520;11.018;2023-04-24T09:17:00;18.80;66.90
31675;DHT22;18276;45.520;11.018;2023-04-24T09:19:27;18.90;67.80
31675;DHT22;18276;45.520;11.018;2023-04-24T09:21:54;19.10;67.70
31675;DHT22;18276;45.520;11.018;2023-04-24T09:24:22;19.30;65.00
31675;DHT22;18276;45.520;11.018;2023-04-24T09:26:58;19.40;63.80
31675;DHT22;18276;45.520;11.018;2023-04-24T09:29:25;19.60;62.20
31675;DHT22;18276;45.520;11.018;2023-04-24T09:31:52;19.60;60.70
31675;DHT22;18276;45.520;11.018;2023-04-24T09:34:27;19.80;60.30
31675;DHT22;18276;45.520;11.018;2023-04-24T09:36:54;20.10;60.00
31675;DHT22;18276;45.520;11.018;2023-04-24T09:39:21;20.60;58.90
31675;DHT22;18276;45.520;11.018;2023-04-24T09:41:53;21.30;58.50
31675;DHT22;18276;45.520;11.018;2023-04-24T09:44:24;22.10;55.60
31675;DHT22;18276;45.520;11.018;2023-04-24T09:49:23;24.00;53.00
31675;DHT22;18276;45.520;11.018;2023-04-24T09:51:51;24.90;51.30
31675;DHT22;18276;45.520;11.018;2023-04-24T09:54:18;25.90;49.40
31675;DHT22;18276;45.520;11.018;2023-04-24T09:56:48;26.60;47.20
31675;DHT22;18276;45.520;11.018;2023-04-24T09:59:15;26.80;45.80
31675;DHT22;18276;45.520;11.018;2023-04-24T10:01:43;26.90;45.10
31675;DHT22;18276;45.520;11.018;2023-04-24T10:04:15;26.70;44.30
31675;DHT22;18276;45.520;11.018;2023-04-24T10:06:42;26.80;43.90
31675;DHT22;18276;45.520;11.018;2023-04-24T10:09:09;26.80;42.80
31675;DHT22;18276;45.520;11.018;2023-04-24T10:11:40;26.60;42.20
31675;DHT22;18276;45.520;11.018;2023-04-24T10:14:08;26.40;42.50
31675;DHT22;18276;45.520;11.018;2023-04-24T10:16:37;25.90;41.90
31675;DHT22;18276;45.520;11.018;2023-04-24T10:19:04;25.60;42.60
31675;DHT22;18276;45.520;11.018;2023-04-24T10:21:32;25.30;43.00
31675;DHT22;18276;45.520;11.018;2023-04-24T10:23:59;25.20;43.60
31675;DHT22;18276;45.520;11.018;2023-04-24T10:26:30;25.30;43.90
31675;DHT22;18276;45.520;11.018;2023-04-24T10:28:57;25.00;41.90
31675;DHT22;18276;45.520;11.018;2023-04-24T10:31:24;24.60;43.80
31675;DHT22;18276;45.520;11.018;2023-04-24T10:33:51;24.30;44.60
31675;DHT22;18276;45.520;11.018;2023-04-24T10:36:19;23.80;45.60
31675;DHT22;18276;45.520;11.018;2023-04-24T10:38:49;23.40;46.60
31675;DHT22;18276;45.520;11.018;2023-04-24T10:41:16;23.40;47.60
31675;DHT22;18276;45.520;11.018;2023-04-24T10:43:46;23.50;47.60
31675;DHT22;18276;45.520;11.018;2023-04-24T10:46:21;23.60;47.90
31675;DHT22;18276;45.520;11.018;2023-04-24T10:48:52;23.80;48.30
31675;DHT22;18276;45.520;11.018;2023-04-24T10:51:19;24.20;47.20
31675;DHT22;18276;45.520;11.018;2023-04-24T10:53:49;24.60;47.10
31675;DHT22;18276;45.520;11.018;2023-04-24T10:56:16;24.90;46.30
31675;DHT22;18276;45.520;11.018;2023-04-24T10:58:44;25.00;45.50
31675;DHT22;18276;45.520;11.018;2023-04-24T11:01:28;24.90;45.30
31675;DHT22;18276;45.520;11.018;2023-04-24T11:03:57;25.20;46.50
31675;DHT22;18276;45.520;11.018;2023-04-24T11:09:01;25.90;45.00
31675;DHT22;18276;45.520;11.018;2023-04-24T11:11:29;26.00;44.70
31675;DHT22;18276;45.520;11.018;2023-04-24T11:19:03;26.10;43.10
31675;DHT22;18276;45.520;11.018;2023-04-24T11:21:40;26.60;43.70
31675;DHT22;18276;45.520;11.018;2023-04-24T11:26:56;28.10;40.60
31675;DHT22;18276;45.520;11.018;2023-04-24T11:29:38;28.60;38.00
31675;DHT22;18276;45.520;11.018;2023-04-24T11:32:14;28.90;38.30
31675;DHT22;18276;45.520;11.018;2023-04-24T11:34:45;29.10;38.10
31675;DHT22;18276;45.520;11.018;2023-04-24T11:37:12;29.50;37.60
31675;DHT22;18276;45.520;11.018;2023-04-24T11:39:39;30.00;37.20
31675;DHT22;18276;45.520;11.018;2023-04-24T11:42:07;30.20;35.00
31675;DHT22;18276;45.520;11.018;2023-04-24T11:44:34;30.00;35.70
31675;DHT22;18276;45.520;11.018;2023-04-24T11:47:06;30.20;35.80
31675;DHT22;18276;45.520;11.018;2023-04-24T11:49:36;30.30;34.80
31675;DHT22;18276;45.520;11.018;2023-04-24T11:52:04;29.90;34.80
31675;DHT22;18276;45.520;11.018;2023-04-24T11:54:31;29.70;36.20
31675;DHT22;18276;45.520;11.018;2023-04-24T11:56:58;29.80;35.20
31675;DHT22;18276;45.520;11.018;2023-04-24T11:59:25;29.20;34.40
31675;DHT22;18276;45.520;11.018;2023-04-24T12:01:52;28.50;34.70
31675;DHT22;18276;45.520;11.018;2023-04-24T12:04:19;28.30;35.80
31675;DHT22;18276;45.520;11.018;2023-04-24T12:06:58;28.20;35.90
31675;DHT22;18276;45.520;11.018;2023-04-24T12:09:25;28.80;36.70
31675;DHT22;18276;45.520;11.018;2023-04-24T12:11:56;29.60;34.60
31675;DHT22;18276;45.520;11.018;2023-04-24T12:14:26;30.10;34.00
31675;DHT22;18276;45.520;11.018;2023-04-24T12:16:52;30.60;33.50
31675;DHT22;18276;45.520;11.018;2023-04-24T12:19:20;30.60;32.70
31675;DHT22;18276;45.520;11.018;2023-04-24T12:22:03;30.40;33.40
31675;DHT22;18276;45.520;11.018;2023-04-24T12:24:31;30.30;34.30
31675;DHT22;18276;45.520;11.018;2023-04-24T12:26:58;30.60;33.90
31675;DHT22;18276;45.520;11.018;2023-04-24T12:29:28;31.30;32.80
31675;DHT22;18276;45.520;11.018;2023-04-24T12:31:54;31.60;32.80
31675;DHT22;18276;45.520;11.018;2023-04-24T12:34:22;31.80;33.00
31675;DHT22;18276;45.520;11.018;2023-04-24T12:36:50;31.90;33.00
31675;DHT22;18276;45.520;11.018;2023-04-24T12:39:17;31.90;32.40
31675;DHT22;18276;45.520;11.018;2023-04-24T12:42:25;31.10;32.50
31675;DHT22;18276;45.520;11.018;2023-04-24T12:44:37;30.50;32.80
31675;DHT22;18276;45.520;11.018;2023-04-24T12:47:04;29.80;33.60
31675;DHT22;18276;45.520;11.018;2023-04-24T12:49:31;29.90;34.70
31675;DHT22;18276;45.520;11.018;2023-04-24T12:51:58;30.20;33.50
31675;DHT22;18276;45.520;11.018;2023-04-24T12:54:25;30.60;33.90
31675;DHT22;18276;45.520;11.018;2023-04-24T12:56:52;31.00;33.00
31675;DHT22;18276;45.520;11.018;2023-04-24T12:59:19;31.00;32.00
31675;DHT22;18276;45.520;11.018;2023-04-24T13:01:45;30.60;31.50
31675;DHT22;18276;45.520;11.018;2023-04-24T13:04:13;30.10;31.60
31675;DHT22;18276;45.520;11.018;2023-04-24T13:06:40;29.80;32.40
31675;DHT22;18276;45.520;11.018;2023-04-24T13:09:07;29.70;32.50
31675;DHT22;18276;45.520;11.018;2023-04-24T13:11:34;30.00;31.00
31675;DHT22;18276;45.520;11.018;2023-04-24T13:14:01;30.20;31.50
31675;DHT22;18276;45.520;11.018;2023-04-24T13:16:28;30.60;31.90
31675;DHT22;18276;45.520;11.018;2023-04-24T13:18:55;31.20;32.10
31675;DHT22;18276;45.520;11.018;2023-04-24T13:21:22;31.60;31.70
31675;DHT22;18276;45.520;11.018;2023-04-24T13:23:49;31.50;31.00
31675;DHT22;18276;45.520;11.018;2023-04-24T13:26:16;31.00;31.40
31675;DHT22;18276;45.520;11.018;2023-04-24T13:28:42;30.20;31.80
31675;DHT22;18276;45.520;11.018;2023-04-24T13:31:09;29.40;31.80
31675;DHT22;18276;45.520;11.018;2023-04-24T13:33:36;28.40;33.20
31675;DHT22;18276;45.520;11.018;2023-04-24T13:36:03;27.50;34.50
31675;DHT22;18276;45.520;11.018;2023-04-24T13:38:30;26.80;35.80
31675;DHT22;18276;45.520;11.018;2023-04-24T13:40:57;26.30;35.90
31675;DHT22;18276;45.520;11.018;2023-04-24T13:43:24;25.90;36.90
31675;DHT22;18276;45.520;11.018;2023-04-24T13:45:51;25.70;37.80
31675;DHT22;18276;45.520;11.018;2023-04-24T13:48:18;25.50;38.20
31675;DHT22;18276;45.520;11.018;2023-04-24T13:50:44;25.20;39.60
31675;DHT22;18276;45.520;11.018;2023-04-24T13:53:14;25.10;40.20
31675;DHT22;18276;45.520;11.018;2023-04-24T13:55:41;25.00;41.50
31675;DHT22;18276;45.520;11.018;2023-04-24T13:58:08;24.80;42.00
31675;DHT22;18276;45.520;11.018;2023-04-24T14:00:35;24.50;42.90
31675;DHT22;18276;45.520;11.018;2023-04-24T14:03:02;24.20;43.90
31675;DHT22;18276;45.520;11.018;2023-04-24T14:05:29;24.00;44.40
31675;DHT22;18276;45.520;11.018;2023-04-24T14:07:56;23.80;44.10
31675;DHT22;18276;45.520;11.018;2023-04-24T14:10:23;23.60;43.60
31675;DHT22;18276;45.520;11.018;2023-04-24T14:12:50;23.50;44.30
31675;DHT22;18276;45.520;11.018;2023-04-24T14:15:17;23.40;44.30
31675;DHT22;18276;45.520;11.018;2023-04-24T14:17:44;23.20;44.60
31675;DHT22;18276;45.520;11.018;2023-04-24T14:20:12;22.90;45.20
31675;DHT22;18276;45.520;11.018;2023-04-24T14:22:39;22.70;45.30
31675;DHT22;18276;45.520;11.018;2023-04-24T14:25:06;22.50;45.60
31675;DHT22;18276;45.520;11.018;2023-04-24T14:27:33;22.40;46.00
31675;DHT22;18276;45.520;11.018;2023-04-24T14:30:01;22.30;46.20
31675;DHT22;18276;45.520;11.018;2023-04-24T14:32:28;22.30;46.00
31675;DHT22;18276;45.520;11.018;2023-04-24T14:34:55;22.20;46.10
31675;DHT22;18276;45.520;11.018;2023-04-24T14:37:22;22.00;45.80
31675;DHT22;18276;45.520;11.018;2023-04-24T14:39:48;21.90;45.90
31675;DHT22;18276;45.520;11.018;2023-04-24T14:42:35;21.70;45.90
31675;DHT22;18276;45.520;11.018;2023-04-24T14:45:02;21.70;46.10
31675;DHT22;18276;45.520;11.018;2023-04-24T14:47:29;21.70;46.00
31675;DHT22;18276;45.520;11.018;2023-04-24T14:49:56;21.80;46.40
31675;DHT22;18276;45.520;11.018;2023-04-24T14:52:23;22.00;46.40
31675;DHT22;18276;45.520;11.018;2023-04-24T14:54:50;22.20;46.40
31675;DHT22;18276;45.520;11.018;2023-04-24T14:57:17;22.30;46.00
31675;DHT22;18276;45.520;11.018;2023-04-24T14:59:44;22.20;45.80
31675;DHT22;18276;45.520;11.018;2023-04-24T15:02:11;22.10;46.40
31675;DHT22;18276;45.520;11.018;2023-04-24T15:04:43;22.10;47.10
31675;DHT22;18276;45.520;11.018;2023-04-24T15:07:10;22.10;47.40
31675;DHT22;18276;45.520;11.018;2023-04-24T15:09:37;22.00;47.90
31675;DHT22;18276;45.520;11.018;2023-04-24T15:12:04;22.00;48.80
31675;DHT22;18276;45.520;11.018;2023-04-24T15:14:31;22.00;49.70
31675;DHT22;18276;45.520;11.018;2023-04-24T15:16:58;21.80;50.30
31675;DHT22;18276;45.520;11.018;2023-04-24T15:19:25;21.80;51.00
31675;DHT22;18276;45.520;11.018;2023-04-24T15:21:52;21.80;51.50
31675;DHT22;18276;45.520;11.018;2023-04-24T15:24:19;21.70;52.00
31675;DHT22;18276;45.520;11.018;2023-04-24T15:26:46;21.60;52.70
31675;DHT22;18276;45.520;11.018;2023-04-24T15:29:13;21.40;52.90
31675;DHT22;18276;45.520;11.018;2023-04-24T15:31:40;21.30;53.40
31675;DHT22;18276;45.520;11.018;2023-04-24T15:34:07;21.20;53.80